Time;durP1;ratioP1;P1;durP2;ratioP2;P2;SDS_P1;SDS_P2;PMS_P1;PMS_P2;Temp;Humidity;BMP_temperature;BMP_pressure;BME280_temperature;BME280_humidity;BME280_pressure;Samples;Min_cycle;Max_cycle;Signal;HPM_P1;HPM_P2
2022/05/08 00:00:23;;;;;;;11.88;7.13;;;;;;;11.71;100.00;102625.31;5051468;28;20044;-56
2022/05/08 00:02:54;;;;;;;16.63;7.75;;;;;;;11.64;99.39;102625.59;5047978;28;20558;-55
2022/05/08 00:05:23;;;;;;;14.93;6.90;;;;;;;11.61;98.59;102627.47;5050466;28;20037;-54
2022/05/08 00:07:51;;;;;;;14.27;7.13;;;;;;;11.52;99.38;102625.22;5052469;28;20060;-55
2022/05/08 00:10:20;;;;;;;13.93;7.38;;;;;;;11.40;100.00;102630.06;5052359;28;20087;-55
2022/05/08 00:12:49;;;;;;;15.55;7.43;;;;;;;11.33;99.92;102631.25;5052341;28;20106;-56
2022/05/08 00:15:18;;;;;;;13.20;7.63;;;;;;;11.30;100.00;102626.97;5052050;28;20084;-56
2022/05/08 00:17:46;;;;;;;17.77;8.07;;;;;;;11.38;100.00;102629.25;5052393;28;20106;-53
2022/05/08 00:20:14;;;;;;;16.70;7.43;;;;;;;11.38;100.00;102629.25;5051951;28;20052;-54
2022/05/08 00:22:46;;;;;;;17.08;8.02;;;;;;;11.23;100.00;102628.09;5051893;28;20508;-54
2022/05/08 00:25:14;;;;;;;19.13;7.97;;;;;;;11.23;100.00;102625.47;5051276;28;20060;-55
2022/05/08 00:27:43;;;;;;;16.60;8.10;;;;;;;11.10;100.00;102619.00;5052021;28;20045;-52
2022/05/08 00:30:14;;;;;;;20.65;8.07;;;;;;;11.08;100.00;102626.09;5052006;28;20059;-57
2022/05/08 00:32:42;;;;;;;21.30;9.15;;;;;;;10.97;100.00;102622.06;5052202;28;20049;-56
2022/05/08 00:35:11;;;;;;;13.10;7.63;;;;;;;11.01;100.00;102620.19;5051905;28;20428;-53
2022/05/08 00:37:39;;;;;;;17.77;8.15;;;;;;;10.94;100.00;102626.63;5052054;28;20472;-53
2022/05/08 00:40:08;;;;;;;12.48;6.85;;;;;;;10.98;100.00;102630.84;5052091;28;20041;-54
2022/05/08 00:42:36;;;;;;;14.38;8.35;;;;;;;10.85;100.00;102622.53;5051644;28;20060;-56
2022/05/08 00:45:05;;;;;;;14.00;7.43;;;;;;;10.86;100.00;102621.63;5051814;28;20044;-54
2022/05/08 00:47:36;;;;;;;14.43;8.30;;;;;;;10.91;100.00;102627.59;5051959;28;20084;-55
2022/05/08 00:50:05;;;;;;;16.00;8.43;;;;;;;10.94;100.00;102624.84;5051796;28;20053;-55
2022/05/08 00:52:35;;;;;;;16.17;7.88;;;;;;;11.01;100.00;102628.09;5052038;28;20677;-54
2022/05/08 00:55:06;;;;;;;18.40;8.48;;;;;;;10.86;100.00;102621.63;5050330;28;20250;-55
2022/05/08 00:57:36;;;;;;;19.98;8.05;;;;;;;10.76;100.00;102615.88;5047950;28;20053;-56
2022/05/08 01:00:08;;;;;;;17.33;7.75;;;;;;;10.71;100.00;102622.22;5050028;28;20045;-54
2022/05/08 01:02:38;;;;;;;16.03;6.83;;;;;;;10.71;100.00;102619.59;5051649;28;20488;-55
2022/05/08 01:05:07;;;;;;;18.92;7.15;;;;;;;10.62;100.00;102636.56;5051811;28;20045;-54
2022/05/08 01:07:35;;;;;;;14.65;6.00;;;;;;;10.48;99.69;102632.69;5051866;28;20075;-53
2022/05/08 01:10:04;;;;;;;14.93;6.82;;;;;;;10.50;100.00;102622.09;5052076;28;20536;-56
2022/05/08 01:12:33;;;;;;;15.77;6.80;;;;;;;10.55;99.33;102633.34;5051438;28;20045;-56
2022/05/08 01:15:12;;;;;;;17.95;6.32;;;;;;;10.52;98.79;102628.16;5051436;28;20107;-55
2022/05/08 01:17:41;;;;;;;19.27;5.82;;;;;;;10.54;98.23;102638.63;5051404;28;20053;-55
2022/05/08 01:20:11;;;;;;;21.25;6.25;;;;;;;10.57;98.06;102635.91;5050929;28;20049;-56
2022/05/08 01:22:40;;;;;;;18.67;5.75;;;;;;;10.51;97.89;102639.59;5051783;28;20049;-56
2022/05/08 01:25:09;;;;;;;15.48;5.50;;;;;;;10.52;97.95;102643.09;5051320;28;20037;-55
2022/05/08 01:27:37;;;;;;;16.15;6.05;;;;;;;10.42;97.46;102642.56;5047935;28;20098;-54
2022/05/08 01:30:07;;;;;;;20.05;5.72;;;;;;;10.34;97.68;102650.69;5048469;28;20048;-55
2022/05/08 01:32:35;;;;;;;17.67;5.45;;;;;;;10.34;97.47;102640.19;5051308;28;20128;-55
2022/05/08 01:35:04;;;;;;;16.52;6.43;;;;;;;10.30;98.02;102649.94;5051390;28;20036;-55
2022/05/08 01:37:32;;;;;;;19.80;5.32;;;;;;;10.17;97.32;102651.31;5051407;28;20463;-55
2022/05/08 01:40:02;;;;;;;16.52;5.65;;;;;;;10.21;97.80;102663.44;5051661;28;20048;-53
2022/05/08 01:42:31;;;;;;;16.38;5.38;;;;;;;10.17;96.63;102656.56;5049846;28;20057;-53
2022/05/08 01:44:59;;;;;;;20.27;6.15;;;;;;;10.08;97.10;102659.50;5050926;28;20052;-56
2022/05/08 01:50:13;;;;;;;21.88;5.65;;;;;;;9.98;97.48;102665.06;5051208;28;20049;-55
2022/05/08 01:52:42;;;;;;;14.68;5.03;;;;;;;10.04;96.64;102656.09;5046090;28;20527;-55
2022/05/08 01:55:12;;;;;;;21.33;5.15;;;;;;;9.98;96.96;102665.06;5048157;28;20518;-55
2022/05/08 01:57:40;;;;;;;19.08;5.43;;;;;;;9.94;97.04;102658.19;5051268;28;20527;-55
2022/05/08 02:00:09;;;;;;;20.05;5.50;;;;;;;10.10;96.28;102662.91;5052872;28;20053;-52
2022/05/08 02:02:38;;;;;;;19.00;5.25;;;;;;;9.94;96.74;102655.56;5054553;28;20393;-54
2022/05/08 02:05:07;;;;;;;19.27;5.50;;;;;;;9.96;97.54;102658.97;5054991;28;20045;-56
2022/05/08 02:07:35;;;;;;;17.70;5.03;;;;;;;9.94;97.04;102663.44;5054211;28;20503;-53
2022/05/08 02:10:04;;;;;;;23.27;5.75;;;;;;;9.97;96.80;102663.34;5054595;28;20049;-55
2022/05/08 02:12:34;;;;;;;18.40;4.93;;;;;;;9.85;97.57;102671.63;5054725;28;20040;-56
2022/05/08 02:15:02;;;;;;;20.50;5.32;;;;;;;9.77;98.07;102671.88;5054661;28;20072;-53
2022/05/08 02:17:30;;;;;;;21.13;5.30;;;;;;;9.72;98.16;102662.44;5054574;28;20384;-56
2022/05/08 02:19:59;;;;;;;17.70;4.97;;;;;;;9.70;98.15;102664.25;5050798;28;20070;-54
2022/05/08 02:22:28;;;;;;;21.48;5.35;;;;;;;9.68;98.72;102668.69;5050841;28;20048;-56
2022/05/08 02:24:56;;;;;;;23.77;4.97;;;;;;;9.75;99.06;102657.94;5054631;28;20037;-56
2022/05/08 02:27:25;;;;;;;21.70;4.55;;;;;;;9.75;98.62;102657.09;5052377;28;20087;-55
2022/05/08 02:29:54;;;;;;;13.93;5.28;;;;;;;9.78;97.44;102662.25;5050870;28;20072;-56
2022/05/08 02:32:22;;;;;;;20.75;4.60;;;;;;;9.79;97.26;102663.97;5053814;28;20052;-56
2022/05/08 02:34:51;;;;;;;17.10;5.47;;;;;;;9.71;97.92;102661.56;5052751;28;20053;-54
2022/05/08 02:37:19;;;;;;;17.27;4.40;;;;;;;9.77;97.95;102661.34;5049287;28;20040;-57
2022/05/08 02:39:47;;;;;;;18.20;4.88;;;;;;;9.77;97.10;102663.16;5050603;28;20503;-56
2022/05/08 02:42:15;;;;;;;18.75;4.20;;;;;;;9.84;96.76;102671.69;5054403;28;20403;-54
2022/05/08 02:44:44;;;;;;;25.38;5.20;;;;;;;9.68;96.71;102664.31;5053906;28;20091;-55
2022/05/08 02:47:13;;;;;;;21.52;5.07;;;;;;;9.64;97.53;102674.06;5053792;28;20053;-56
2022/05/08 02:49:41;;;;;;;22.20;5.13;;;;;;;9.55;97.57;102669.09;5053746;28;20073;-56
2022/05/08 02:52:10;;;;;;;16.45;4.97;;;;;;;9.57;97.20;102666.41;5051734;28;20124;-56
2022/05/08 02:54:38;;;;;;;14.75;4.47;;;;;;;9.62;97.56;102665.34;5050039;28;20033;-56
2022/05/08 02:59:53;;;;;;;16.05;3.83;;;;;;;9.50;96.42;102671.00;5052456;28;20075;-56
2022/05/08 03:02:22;;;;;;;18.08;4.20;;;;;;;9.48;96.53;102665.78;5049811;28;20048;-56
2022/05/08 03:04:50;;;;;;;19.05;3.88;;;;;;;9.49;96.66;102661.41;5051147;28;20061;-56
2022/05/08 03:07:19;;;;;;;20.48;4.32;;;;;;;9.61;96.41;102661.03;5053409;28;20135;-55
2022/05/08 03:09:47;;;;;;;19.90;4.10;;;;;;;9.62;96.36;102672.38;5053422;28;20399;-54
2022/05/08 03:12:15;;;;;;;21.63;4.32;;;;;;;9.51;95.27;102670.09;5051132;28;20059;-53
2022/05/08 03:14:43;;;;;;;16.45;3.85;;;;;;;9.49;95.57;102658.78;5052133;28;20049;-56
2022/05/08 03:17:11;;;;;;;16.83;3.70;;;;;;;9.39;95.79;102663.44;5053219;28;20044;-55
2022/05/08 03:19:41;;;;;;;16.27;3.45;;;;;;;9.37;95.69;102661.81;5051290;28;20384;-56
2022/05/08 03:22:09;;;;;;;21.17;4.13;;;;;;;9.40;95.03;102670.44;5048900;28;20504;-56
2022/05/08 03:24:38;;;;;;;21.92;4.43;;;;;;;9.42;95.39;102667.75;5052775;28;20088;-56
2022/05/08 03:27:06;;;;;;;21.00;4.07;;;;;;;9.42;95.24;102673.00;5049617;28;20063;-55
2022/05/08 03:29:35;;;;;;;17.35;4.00;;;;;;;9.34;95.06;102675.00;5051362;28;20053;-56
2022/05/08 03:32:03;;;;;;;13.63;3.55;;;;;;;9.29;95.45;102673.38;5052980;28;20045;-54
2022/05/08 03:34:32;;;;;;;19.88;3.92;;;;;;;9.30;95.45;102677.72;5052579;28;20139;-56
2022/05/08 03:37:02;;;;;;;24.80;4.75;;;;;;;9.26;95.53;102673.47;5052726;28;20076;-56
2022/05/08 03:39:30;;;;;;;15.20;3.78;;;;;;;9.32;95.10;102682.09;5052942;28;20044;-55
2022/05/08 03:41:58;;;;;;;20.08;3.65;;;;;;;9.24;95.33;102677.94;5048935;28;20044;-56
2022/05/08 03:44:26;;;;;;;21.75;4.10;;;;;;;9.24;95.36;102685.81;5051253;28;20055;-56
2022/05/08 03:46:54;;;;;;;13.88;3.70;;;;;;;9.27;94.99;102682.22;5052170;28;20048;-56
2022/05/08 03:49:23;;;;;;;13.68;4.07;;;;;;;9.16;95.19;102685.16;5051775;28;20041;-55
2022/05/08 03:51:51;;;;;;;27.38;3.95;;;;;;;9.06;95.80;102694.22;5052688;28;20476;-56
2022/05/08 03:54:20;;;;;;;17.15;4.75;;;;;;;9.14;95.49;102694.84;5050965;28;20052;-55
2022/05/08 03:56:49;;;;;;;19.42;3.90;;;;;;;9.11;95.29;102692.34;5046789;28;20041;-57
2022/05/08 03:59:17;;;;;;;18.38;4.85;;;;;;;9.17;95.32;102692.13;5051189;28;20490;-56
2022/05/08 04:01:45;;;;;;;19.92;3.50;;;;;;;9.23;95.23;102701.59;5052719;28;20064;-55
2022/05/08 04:04:13;;;;;;;16.95;3.47;;;;;;;9.17;96.00;102694.75;5052218;28;20056;-56
2022/05/08 04:06:41;;;;;;;14.80;3.30;;;;;;;9.22;95.61;102699.88;5052292;28;20049;-63
2022/05/08 04:09:10;;;;;;;16.42;3.65;;;;;;;9.10;95.62;102690.59;5052620;28;20447;-62
2022/05/08 04:11:39;;;;;;;19.20;4.13;;;;;;;9.08;95.67;102693.28;5052376;28;20056;-62
2022/05/08 04:14:07;;;;;;;23.77;4.07;;;;;;;9.02;96.87;102703.09;5052839;28;20044;-63
2022/05/08 04:16:35;;;;;;;18.75;4.15;;;;;;;9.05;96.75;102701.25;5052351;28;20504;-62
2022/05/08 04:19:03;;;;;;;21.15;4.07;;;;;;;9.11;96.61;102706.31;5052369;28;20049;-62
2022/05/08 04:21:31;;;;;;;16.45;3.70;;;;;;;9.12;96.00;102700.16;5050859;28;20055;-62
2022/05/08 04:24:16;;;;;;;14.13;3.25;;;;;;;9.02;96.78;102697.84;5048529;28;20088;-62
2022/05/08 04:26:47;;;;;;;18.25;3.85;;;;;;;8.90;97.19;102709.53;5050604;28;20055;-62
2022/05/08 04:29:15;;;;;;;20.48;3.80;;;;;;;8.94;97.11;102713.78;5052043;28;20139;-62
2022/05/08 04:31:43;;;;;;;18.42;3.65;;;;;;;8.82;97.68;102712.41;5050909;28;20049;-62
2022/05/08 04:34:11;;;;;;;18.20;3.55;;;;;;;8.79;97.92;102708.09;5048787;28;20040;-62
2022/05/08 04:36:39;;;;;;;18.45;3.92;;;;;;;8.80;98.26;102715.03;5048305;28;20044;-62
2022/05/08 04:39:08;;;;;;;22.75;3.95;;;;;;;8.80;98.47;102717.66;5051907;28;20049;-62
2022/05/08 04:41:36;;;;;;;19.60;3.88;;;;;;;8.75;98.44;102726.56;5052066;28;20045;-61
2022/05/08 04:44:05;;;;;;;18.48;4.05;;;;;;;8.65;98.33;102712.84;5051030;28;20055;-61
2022/05/08 04:46:34;;;;;;;21.70;4.15;;;;;;;8.63;99.13;102723.38;5047834;28;20140;-62
2022/05/08 04:49:02;;;;;;;18.77;4.18;;;;;;;8.67;98.84;102726.81;5049745;28;20045;-61
2022/05/08 04:51:31;;;;;;;20.15;4.57;;;;;;;8.61;99.10;102733.03;5051743;28;20044;-61
2022/05/08 04:53:59;;;;;;;24.02;4.80;;;;;;;8.61;99.51;102722.56;5051801;28;20051;-61
2022/05/08 04:56:27;;;;;;;18.70;3.83;;;;;;;8.51;99.66;102723.72;5051062;28;20508;-62
2022/05/08 04:58:55;;;;;;;18.08;4.25;;;;;;;8.49;100.00;102725.50;5046380;28;20117;-60
2022/05/08 05:01:25;;;;;;;16.52;4.35;;;;;;;8.55;99.61;102725.34;5049191;28;20053;-61
2022/05/08 05:03:54;;;;;;;21.08;4.50;;;;;;;8.58;99.74;102727.88;5051421;28;20057;-61
2022/05/08 05:06:25;;;;;;;21.08;3.92;;;;;;;8.60;99.54;102730.47;5051414;28;20077;-62
2022/05/08 05:08:54;;;;;;;21.38;3.90;;;;;;;8.62;99.30;102737.41;5051284;28;20033;-61
2022/05/08 05:11:22;;;;;;;23.23;3.97;;;;;;;8.72;99.20;102742.41;5051375;28;20177;-62
2022/05/08 05:13:50;;;;;;;20.13;4.72;;;;;;;8.61;99.66;102740.91;5051206;28;20080;-61
2022/05/08 05:16:18;;;;;;;18.42;4.38;;;;;;;8.73;98.99;102739.72;5048684;28;20404;-61
2022/05/08 05:18:48;;;;;;;17.75;3.35;;;;;;;8.80;98.78;102735.19;5046786;28;20049;-61
2022/05/08 05:21:16;;;;;;;21.48;3.58;;;;;;;8.88;98.76;102743.69;5050613;28;20467;-55
2022/05/08 05:23:44;;;;;;;23.17;4.93;;;;;;;8.84;97.88;102744.69;5050844;28;20037;-54
2022/05/08 05:26:13;;;;;;;16.17;3.50;;;;;;;8.82;97.76;102749.13;5050825;28;20087;-56
2022/05/08 05:28:43;;;;;;;19.40;3.90;;;;;;;8.84;96.93;102749.94;5050919;28;20060;-55
2022/05/08 05:31:12;;;;;;;19.23;3.47;;;;;;;8.91;95.39;102756.72;5051440;28;20119;-54
2022/05/08 05:33:41;;;;;;;24.38;4.35;;;;;;;8.88;96.17;102761.22;5051000;28;20052;-55
2022/05/08 05:36:10;;;;;;;20.25;3.58;;;;;;;8.88;96.59;102764.69;5054767;28;20053;-54
2022/05/08 05:38:39;;;;;;;19.63;3.80;;;;;;;9.00;95.86;102767.88;5053585;28;20041;-54
2022/05/08 05:41:07;;;;;;;17.33;3.67;;;;;;;9.09;94.98;102765.00;5053991;28;20055;-54
2022/05/08 05:43:35;;;;;;;18.05;3.53;;;;;;;9.04;94.16;102764.25;5055184;28;20500;-55
2022/05/08 05:48:49;;;;;;;22.00;3.75;;;;;;;9.26;93.10;102773.25;5051375;28;20057;-53
2022/05/08 05:51:19;;;;;;;16.38;4.13;;;;;;;9.35;92.92;102773.88;5054886;28;20407;-55
2022/05/08 05:53:48;;;;;;;18.67;4.15;;;;;;;9.36;92.87;102776.47;5054917;28;20048;-55
2022/05/08 05:56:16;;;;;;;16.38;3.72;;;;;;;9.45;91.30;102775.34;5052046;28;20508;-55
2022/05/08 05:58:44;;;;;;;18.35;3.50;;;;;;;9.47;91.05;102773.53;5050079;28;20045;-55
2022/05/08 06:01:12;;;;;;;18.25;4.53;;;;;;;9.50;90.50;102777.81;5054658;28;20102;-56
2022/05/08 06:03:41;;;;;;;16.83;3.63;;;;;;;9.64;90.08;102778.28;5054311;28;20431;-56
2022/05/08 06:06:09;;;;;;;20.52;3.88;;;;;;;9.69;88.70;102786.88;5054699;28;20365;-56
2022/05/08 06:08:38;;;;;;;22.92;4.18;;;;;;;9.71;88.75;102787.69;5052258;28;20056;-54
2022/05/08 06:11:07;;;;;;;15.27;3.63;;;;;;;9.83;88.35;102789.09;5051290;28;20044;-56
2022/05/08 06:13:35;;;;;;;15.93;4.30;;;;;;;9.91;88.25;102792.34;5053768;28;20044;-56
2022/05/08 06:16:07;;;;;;;14.43;3.50;;;;;;;10.04;86.87;102797.22;5054312;28;20443;-56
2022/05/08 06:18:35;;;;;;;13.40;3.83;;;;;;;10.13;85.68;102799.56;5054265;28;20045;-55
2022/05/08 06:21:04;;;;;;;13.63;3.13;;;;;;;10.19;85.87;102798.50;5050314;28;20064;-54
2022/05/08 06:23:34;;;;;;;14.90;3.60;;;;;;;10.26;84.46;102807.88;5051602;28;20123;-57
2022/05/08 06:26:04;;;;;;;17.83;3.67;;;;;;;10.32;85.07;102810.31;5052323;28;20061;-56
2022/05/08 06:28:32;;;;;;;14.60;3.72;;;;;;;10.30;83.32;102805.09;5052882;28;20049;-56
2022/05/08 06:31:01;;;;;;;16.65;3.40;;;;;;;10.45;83.34;102806.41;5050812;28;20428;-56
2022/05/08 06:33:29;;;;;;;11.32;3.40;;;;;;;10.43;82.28;102807.34;5052184;28;20065;-57
2022/05/08 06:35:57;;;;;;;13.27;2.92;;;;;;;10.40;81.19;102810.09;5053922;28;20365;-57
2022/05/08 06:38:25;;;;;;;16.50;3.30;;;;;;;10.57;81.34;102813.03;5053656;28;20041;-56
2022/05/08 06:40:53;;;;;;;17.55;3.15;;;;;;;10.70;81.38;102816.09;5053826;28;20425;-56
2022/05/08 06:43:23;;;;;;;15.05;2.70;;;;;;;10.83;80.47;102822.66;5053945;28;20071;-56
2022/05/08 06:45:51;;;;;;;15.93;2.97;;;;;;;10.85;78.46;102819.97;5053455;28;20044;-63
2022/05/08 06:48:20;;;;;;;11.77;3.10;;;;;;;10.97;78.60;102819.53;5053591;28;20049;-62
2022/05/08 06:50:48;;;;;;;22.90;4.55;;;;;;;11.16;79.60;102814.47;5053417;28;20124;-61
2022/05/08 06:53:16;;;;;;;12.90;2.95;;;;;;;11.29;76.75;102820.16;5052570;28;20052;-62
2022/05/08 06:55:45;;;;;;;12.23;2.90;;;;;;;11.40;75.66;102811.84;5052996;28;20051;-62
2022/05/08 06:58:14;;;;;;;12.60;3.53;;;;;;;11.57;76.57;102820.91;5053247;28;20052;-62
2022/05/08 07:03:44;;;;;;;14.45;2.85;;;;;;;11.79;73.15;102815.66;4991409;28;20476;-62
2022/05/08 07:06:12;;;;;;;17.65;3.22;;;;;;;11.84;73.85;102816.34;4990359;28;20057;-62
2022/05/08 07:08:41;;;;;;;12.75;2.55;;;;;;;11.99;72.26;102818.38;5016920;28;20049;-61
2022/05/08 07:11:09;;;;;;;16.17;3.80;;;;;;;12.10;71.37;102815.31;5052034;28;20040;-61
2022/05/08 07:13:38;;;;;;;11.05;2.60;;;;;;;11.97;71.44;102820.25;5052976;28;20146;-60
2022/05/08 07:16:08;;;;;;;16.77;3.20;;;;;;;12.03;70.25;102818.28;5051988;28;20066;-62
2022/05/08 07:18:36;;;;;;;12.70;2.53;;;;;;;11.98;71.03;102823.72;5049218;28;20083;-61
2022/05/08 07:21:05;;;;;;;12.70;2.58;;;;;;;11.97;69.38;102828.16;5050671;28;20053;-61
2022/05/08 07:23:33;;;;;;;11.90;2.92;;;;;;;12.06;69.32;102818.16;5050927;28;20060;-62
2022/05/08 07:26:02;;;;;;;12.80;2.78;;;;;;;12.16;70.03;102817.72;5048955;28;20729;-61
2022/05/08 07:28:30;;;;;;;13.23;2.60;;;;;;;12.26;68.81;102812.09;5052406;28;20036;-61
2022/05/08 07:30:58;;;;;;;13.27;2.80;;;;;;;12.50;68.49;102820.75;5052493;28;20057;-60
2022/05/08 07:33:29;;;;;;;15.43;3.03;;;;;;;12.74;67.71;102812.72;5052042;28;20051;-61
2022/05/08 07:36:14;;;;;;;12.82;2.55;;;;;;;12.93;68.06;102824.19;5052650;28;20053;-61
2022/05/08 07:38:44;;;;;;;10.60;2.53;;;;;;;12.99;66.91;102830.97;5052728;28;20510;-61
2022/05/08 07:41:14;;;;;;;12.90;2.90;;;;;;;12.96;66.84;102824.03;5053089;28;20052;-61
2022/05/08 07:43:45;;;;;;;11.73;2.33;;;;;;;13.02;65.30;102834.34;5052728;28;20110;-61
2022/05/08 07:46:14;;;;;;;7.38;2.03;;;;;;;13.09;63.91;102832.31;5052668;28;20099;-64
2022/05/08 07:48:45;;;;;;;11.07;2.60;;;;;;;13.08;65.27;102833.22;5052352;28;20076;-61
2022/05/08 07:51:13;;;;;;;10.85;2.50;;;;;;;13.09;65.00;102840.22;5052670;28;20075;-62
2022/05/08 07:53:41;;;;;;;14.77;3.47;;;;;;;13.32;63.74;102835.69;5052643;28;20065;-62
2022/05/08 07:56:10;;;;;;;11.70;3.10;;;;;;;13.52;63.17;102833.03;5052648;28;20045;-62
2022/05/08 07:58:38;;;;;;;10.18;2.70;;;;;;;13.60;62.61;102837.97;5050561;28;20044;-64
2022/05/08 08:01:10;;;;;;;12.70;3.28;;;;;;;13.63;63.16;102839.59;5052444;28;20182;-62
2022/05/08 08:03:41;;;;;;;15.15;2.88;;;;;;;13.84;63.26;102830.66;5052000;28;20114;-60
2022/05/08 08:06:10;;;;;;;9.90;2.35;;;;;;;14.00;62.02;102833.44;5046810;28;20124;-61
2022/05/08 08:08:40;;;;;;;14.60;3.47;;;;;;;14.20;61.08;102831.59;5049659;28;20119;-60
2022/05/08 08:11:11;;;;;;;12.48;3.03;;;;;;;14.45;60.39;102836.56;5050573;28;20045;-61
2022/05/08 08:13:39;;;;;;;12.68;3.10;;;;;;;14.37;59.98;102834.28;5048579;28;20063;-61
2022/05/08 08:16:09;;;;;;;11.93;2.88;;;;;;;14.52;60.64;102837.94;5051663;28;20428;-60
2022/05/08 08:18:38;;;;;;;17.30;3.90;;;;;;;14.52;60.58;102834.47;5052170;28;20059;-60
2022/05/08 08:21:12;;;;;;;11.80;3.22;;;;;;;14.70;60.75;102845.94;5052035;28;20044;-60
2022/05/08 08:23:42;;;;;;;11.75;2.75;;;;;;;14.87;58.63;102843.28;5051870;28;20049;-62
2022/05/08 08:26:11;;;;;;;13.48;2.97;;;;;;;15.06;58.92;102850.25;5048992;28;20045;-62
2022/05/08 08:28:40;;;;;;;16.80;3.53;;;;;;;14.96;58.20;102849.88;5048359;28;20044;-62
2022/05/08 08:31:09;;;;;;;10.85;2.97;;;;;;;14.89;58.99;102845.84;5051614;28;20075;-62
2022/05/08 08:33:39;;;;;;;13.93;3.08;;;;;;;15.24;58.36;102837.81;5051743;28;20552;-62
2022/05/08 08:36:08;;;;;;;14.35;3.22;;;;;;;15.41;59.06;102838.72;5050501;28;20049;-62
2022/05/08 08:38:40;;;;;;;12.60;3.03;;;;;;;15.60;57.23;102841.19;5049067;28;20044;-62
2022/05/08 08:41:09;;;;;;;15.85;3.13;;;;;;;15.49;55.60;102847.13;5047965;28;20075;-62
2022/05/08 08:49:18;;;;;;;11.73;3.53;;;;;;;16.32;54.62;102845.16;5033099;28;20045;-62
2022/05/08 08:51:48;;;;;;;13.68;2.65;;;;;;;16.50;54.60;102843.22;5051600;28;20064;-62
2022/05/08 08:54:19;;;;;;;7.75;2.42;;;;;;;16.62;52.57;102846.06;5051824;28;20068;-62
2022/05/08 08:56:48;;;;;;;11.07;2.83;;;;;;;16.84;52.67;102843.00;5050069;28;20053;-62
2022/05/08 08:59:22;;;;;;;12.55;2.38;;;;;;;17.10;52.83;102846.78;5051345;28;20052;-62
2022/05/08 09:01:50;;;;;;;11.85;3.08;;;;;;;17.20;50.58;102845.22;5051584;28;20041;-62
2022/05/08 09:04:19;;;;;;;10.13;2.28;;;;;;;16.97;50.68;102843.16;5051330;28;20391;-62
2022/05/08 09:06:48;;;;;;;11.18;2.60;;;;;;;17.18;49.91;102846.31;5051607;28;20049;-62
2022/05/08 09:09:26;;;;;;;10.77;2.90;;;;;;;17.16;49.94;102841.06;5050942;28;20048;-62
2022/05/08 09:11:56;;;;;;;14.07;2.38;;;;;;;17.63;50.48;102836.38;5052705;28;20048;-61
2022/05/08 09:14:29;;;;;;;11.63;2.40;;;;;;;17.66;49.67;102838.84;5051597;28;20130;-62
2022/05/08 09:16:58;;;;;;;11.15;2.80;;;;;;;17.53;49.14;102830.81;5054454;28;20431;-61
2022/05/08 09:19:37;;;;;;;8.38;2.40;;;;;;;17.87;48.33;102828.63;5051703;28;20503;-62
2022/05/08 09:22:07;;;;;;;11.10;2.67;;;;;;;18.10;47.43;102830.75;5052139;28;20106;-60
2022/05/08 09:24:37;;;;;;;10.73;3.03;;;;;;;18.30;47.44;102830.28;5055396;28;20080;-61
2022/05/08 09:27:13;;;;;;;8.75;2.53;;;;;;;18.46;47.35;102830.13;5055058;28;20049;-60
2022/05/08 09:29:42;;;;;;;9.02;2.35;;;;;;;18.29;45.84;102831.25;5051238;28;20045;-60
2022/05/08 09:32:38;;;;;;;10.98;2.65;;;;;;;18.55;46.02;102831.31;5053381;28;20048;-62
2022/05/08 09:35:08;;;;;;;8.90;2.70;;;;;;;18.66;45.33;102828.75;5055280;28;20103;-61
2022/05/08 09:37:51;;;;;;;9.90;2.45;;;;;;;18.72;45.15;102831.00;5055213;28;20390;-55
2022/05/08 09:40:23;;;;;;;9.45;2.22;;;;;;;18.68;43.41;102828.63;5053152;28;20044;-53
2022/05/08 09:42:51;;;;;;;8.38;2.20;;;;;;;18.96;44.72;102827.63;5051493;28;20079;-54
2022/05/08 09:45:19;;;;;;;9.10;2.50;;;;;;;18.72;43.54;102822.16;5053451;28;20373;-54
2022/05/08 09:47:51;;;;;;;6.55;2.03;;;;;;;19.01;44.16;102816.66;5052447;28;20084;-53
2022/05/08 09:50:20;;;;;;;12.38;2.85;;;;;;;18.93;42.97;102827.84;5049947;28;20103;-55
2022/05/08 09:52:48;;;;;;;9.23;2.65;;;;;;;19.06;41.77;102814.50;5054821;28;20080;-55
2022/05/08 09:55:16;;;;;;;11.27;2.63;;;;;;;19.02;41.71;102811.22;5054705;28;20044;-53
2022/05/08 09:57:46;;;;;;;11.43;2.40;;;;;;;19.38;42.39;102812.22;5054738;28;20084;-54
2022/05/08 10:00:16;;;;;;;8.57;2.25;;;;;;;19.54;41.32;102814.63;5054594;28;20057;-55
2022/05/08 10:02:45;;;;;;;10.52;2.72;;;;;;;19.52;42.14;102808.53;5054786;28;20084;-55
2022/05/08 10:05:16;;;;;;;9.77;2.38;;;;;;;19.59;40.86;102806.28;5054631;28;20053;-54
2022/05/08 10:07:45;;;;;;;7.22;1.88;;;;;;;19.81;39.89;102805.59;5054349;28;20053;-53
2022/05/08 10:15:48;;;;;;;13.75;2.63;;;;;;;19.94;38.94;102805.53;5054458;28;20057;-55
2022/05/08 10:18:29;;;;;;;7.43;2.03;;;;;;;20.34;38.24;102804.34;5054758;28;20077;-55
2022/05/08 10:21:02;;;;;;;8.52;2.53;;;;;;;20.39;37.24;102799.53;5053585;28;20033;-56
2022/05/08 10:23:41;;;;;;;8.73;2.38;;;;;;;20.21;35.81;102805.28;5054198;28;20041;-55
2022/05/08 10:26:17;;;;;;;8.25;2.03;;;;;;;20.30;35.36;102801.09;5050269;28;20052;-56
2022/05/08 10:29:12;;;;;;;8.98;2.30;;;;;;;20.47;36.13;102798.94;5052752;28;20049;-56
2022/05/08 10:31:43;;;;;;;9.27;2.13;;;;;;;20.34;36.47;102805.22;5053953;28;20123;-55
2022/05/08 10:34:12;;;;;;;6.72;2.15;;;;;;;20.53;36.69;102793.09;5053901;28;20528;-55
2022/05/08 10:36:41;;;;;;;7.43;1.95;;;;;;;20.75;34.90;102803.00;5053920;28;20053;-59
2022/05/08 10:39:37;;;;;;;9.85;2.03;;;;;;;20.83;35.54;102794.41;5051501;28;20103;-53
2022/05/08 10:42:05;;;;;;;10.15;2.30;;;;;;;20.67;35.10;102790.22;5049020;28;20095;-55
2022/05/08 10:44:40;;;;;;;10.05;2.15;;;;;;;20.76;36.06;102788.69;5053506;28;20120;-56
2022/05/08 10:47:41;;;;;;;7.00;2.08;;;;;;;21.16;37.71;102785.53;5053696;28;20055;-56
2022/05/08 10:50:12;;;;;;;6.88;2.20;;;;;;;21.16;35.07;102777.50;5031433;28;20053;-56
2022/05/08 10:52:42;;;;;;;7.72;2.20;;;;;;;21.32;36.40;102779.78;5049276;28;20136;-56
2022/05/08 10:55:14;;;;;;;10.93;2.53;;;;;;;21.29;34.99;102772.00;5049555;28;20161;-57
2022/05/08 10:57:44;;;;;;;7.25;2.00;;;;;;;21.45;35.90;102780.50;5050548;28;20045;-55
2022/05/08 11:00:18;;;;;;;7.25;2.08;;;;;;;21.59;34.27;102774.03;5053330;28;20425;-55
2022/05/08 11:02:50;;;;;;;8.27;2.10;;;;;;;21.48;34.64;102767.84;5053442;28;20110;-55
2022/05/08 11:05:22;;;;;;;9.97;2.40;;;;;;;21.64;35.27;102772.81;5053307;28;20065;-55
2022/05/08 11:07:52;;;;;;;8.20;2.30;;;;;;;21.08;36.27;102782.63;5053166;28;20049;-57
2022/05/08 11:10:24;;;;;;;7.75;2.38;;;;;;;21.44;35.06;102776.09;5053365;28;20404;-56
2022/05/08 11:12:59;;;;;;;7.57;2.20;;;;;;;21.57;35.08;102773.31;5053345;28;20553;-58
2022/05/08 11:15:31;;;;;;;8.45;2.10;;;;;;;22.01;34.37;102772.44;5053140;28;20051;-61
2022/05/08 11:18:09;;;;;;;10.10;2.42;;;;;;;22.30;33.66;102772.63;5051626;28;20041;-61
2022/05/08 11:20:43;;;;;;;9.77;2.20;;;;;;;22.23;32.96;102774.16;5047378;28;20385;-53
2022/05/08 11:23:12;;;;;;;7.25;2.03;;;;;;;22.42;32.58;102774.31;5050730;28;20138;-57
2022/05/08 11:25:42;;;;;;;8.02;1.85;;;;;;;22.45;32.89;102778.56;5052341;28;20055;-58
2022/05/08 11:28:14;;;;;;;8.02;2.10;;;;;;;22.68;31.34;102768.53;5051307;28;20055;-57
2022/05/08 11:30:50;;;;;;;7.90;2.28;;;;;;;22.76;32.09;102766.03;5052540;28;20045;-57
2022/05/08 11:36:07;;;;;;;7.18;2.00;;;;;;;22.16;33.72;102771.13;5048228;28;20119;-55
2022/05/08 11:38:44;;;;;;;5.45;1.73;;;;;;;22.52;32.27;102769.00;5049069;28;20139;-56
2022/05/08 11:41:14;;;;;;;6.97;2.08;;;;;;;22.93;32.17;102769.91;5052574;28;20052;-55
2022/05/08 11:43:44;;;;;;;7.05;2.03;;;;;;;22.73;32.35;102770.81;5052419;28;20052;-57
2022/05/08 11:46:16;;;;;;;6.20;2.03;;;;;;;22.93;30.57;102761.88;5048494;28;20136;-57
2022/05/08 11:48:52;;;;;;;6.43;2.13;;;;;;;23.37;30.56;102760.72;5043053;28;20045;-58
2022/05/08 11:51:21;;;;;;;10.02;1.80;;;;;;;23.31;30.21;102748.72;5052095;28;20037;-57
2022/05/08 11:53:51;;;;;;;9.13;2.15;;;;;;;23.35;31.37;102755.50;5051230;28;20377;-57
2022/05/08 11:56:27;;;;;;;6.03;1.80;;;;;;;23.60;30.19;102753.28;5052271;28;20068;-56
2022/05/08 11:58:58;;;;;;;7.32;1.85;;;;;;;23.48;30.93;102743.66;5052183;28;20124;-55